Time;durP1;ratioP1;P1;durP2;ratioP2;P2;SDS_P1;SDS_P2;PMS_P1;PMS_P2;Temp;Humidity;BMP_temperature;BMP_pressure;BME280_temperature;BME280_humidity;BME280_pressure;Samples;Min_cycle;Max_cycle;Signal;HPM_P1;HPM_P2
2023/03/26 01:00:58;;;;;;;28.83;18.23;;;;;;;-141.97;100.00;47590.19;5663251;23;20250;-92
2023/03/26 01:03:29;;;;;;;26.67;17.97;;;;;;;-141.97;100.00;47699.75;5013277;28;20203;-89
2023/03/26 01:06:03;;;;;;;27.43;17.53;;;;;;;-141.97;100.00;47669.00;5014705;28;20154;-89
2023/03/26 01:08:39;;;;;;;27.53;15.80;;;;;;;-141.97;100.00;47843.91;5015162;28;20190;-90
2023/03/26 01:11:13;;;;;;;25.47;16.77;;;;;;;-141.97;100.00;47651.69;5016259;28;20599;-91
2023/03/26 01:13:47;;;;;;;27.03;17.40;;;;;;;-141.97;100.00;47680.53;5032741;28;20189;-88
2023/03/26 01:16:40;;;;;;;26.50;17.10;;;;;;;-141.97;100.00;47645.94;5035275;28;20168;-89
2023/03/26 01:19:11;;;;;;;26.33;17.00;;;;;;;-141.97;100.00;47765.09;4977896;28;20263;-91
2023/03/26 01:21:38;;;;;;;25.40;15.30;;;;;;;-141.97;100.00;47661.31;4973598;28;20203;-91
2023/03/26 01:24:06;;;;;;;27.13;16.83;;;;;;;-141.97;100.00;47699.75;4965507;28;20191;-89
2023/03/26 01:26:37;;;;;;;28.30;16.33;;;;;;;-141.97;100.00;47672.84;4966927;28;20227;-92
2023/03/26 01:29:07;;;;;;;29.43;17.60;;;;;;;-141.97;100.00;47657.47;4955607;28;20200;-91
2023/03/26 01:31:39;;;;;;;26.80;17.90;;;;;;;-141.97;100.00;47534.44;4955543;28;20676;-91
2023/03/26 01:34:04;;;;;;;30.17;17.90;;;;;;;-141.97;100.00;47703.59;4971697;28;20172;-90
2023/03/26 01:36:46;;;;;;;28.97;15.93;;;;;;;-141.97;100.00;47709.38;4971744;28;20187;-90
2023/03/26 01:39:47;;;;;;;27.80;15.77;;;;;;;-141.97;100.00;47757.41;4955766;28;20190;-89
2023/03/26 01:42:26;;;;;;;26.67;16.10;;;;;;;-141.97;100.00;47653.63;4971854;28;20215;-91
2023/03/26 01:44:58;;;;;;;25.77;16.63;;;;;;;-141.97;97.86;47730.50;4971721;28;20207;-91
2023/03/26 01:47:25;;;;;;;26.70;17.67;;;;;;;-141.97;94.81;47770.88;4955429;28;20183;-92
2023/03/26 01:49:50;;;;;;;25.43;16.10;;;;;;;-141.97;92.79;47738.19;4956004;28;20219;-89
2023/03/26 01:52:20;;;;;;;27.13;16.50;;;;;;;-141.97;90.29;47651.69;4955229;28;20184;-90
2023/03/26 01:54:46;;;;;;;26.20;15.87;;;;;;;-141.97;87.43;47553.69;4957833;28;20222;-91
2023/03/26 01:57:23;;;;;;;22.97;14.07;;;;;;;-141.97;84.72;47647.84;5011695;28;20186;-89
2023/03/26 01:59:48;;;;;;;20.83;13.93;;;;;;;-141.97;83.16;47663.22;5013110;28;20174;-91
2023/03/26 02:02:18;;;;;;;21.43;14.43;;;;;;;-141.97;82.15;47717.06;5027032;28;20285;-91
2023/03/26 02:04:55;;;;;;;19.07;13.10;;;;;;;-141.97;80.04;47630.56;5012769;28;20174;-90
2023/03/26 02:07:43;;;;;;;15.87;10.47;;;;;;;-141.97;77.50;47659.38;5011520;28;20642;-91
2023/03/26 02:10:16;;;;;;;14.97;9.67;;;;;;;-141.97;75.69;47686.31;5022896;28;20225;-91
2023/03/26 02:12:43;;;;;;;12.47;7.73;;;;;;;-141.97;73.77;47507.53;5010956;28;20170;-90
2023/03/26 02:15:10;;;;;;;11.97;7.50;;;;;;;-141.97;72.67;47695.91;5012600;28;20662;-91
2023/03/26 02:17:39;;;;;;;11.93;7.93;;;;;;;-141.97;71.87;47653.63;5012539;28;20156;-92
2023/03/26 02:20:07;;;;;;;10.37;7.03;;;;;;;-141.97;70.30;47557.53;5011629;28;20198;-92
2023/03/26 02:22:39;;;;;;;10.23;7.27;;;;;;;-141.97;69.93;47622.88;5011646;28;20666;-90
2023/03/26 02:25:09;;;;;;;10.97;7.60;;;;;;;-141.97;70.07;47786.25;5012472;28;20565;-91
2023/03/26 02:27:36;;;;;;;10.27;6.80;;;;;;;-141.97;70.15;47540.22;5014088;28;20216;-90
2023/03/26 02:30:04;;;;;;;10.60;6.90;;;;;;;-141.97;70.58;47772.78;5013408;28;20637;-92
2023/03/26 02:32:29;;;;;;;10.03;6.27;;;;;;;-141.97;70.50;47530.59;5012543;28;20592;-92
2023/03/26 02:34:55;;;;;;;9.90;5.83;;;;;;;-141.97;69.24;47513.31;5013913;28;20301;-91
2023/03/26 02:37:20;;;;;;;8.13;5.30;;;;;;;-141.97;69.03;47793.94;5012795;28;20185;-92
2023/03/26 02:39:45;;;;;;;7.23;5.50;;;;;;;-141.97;68.22;47469.09;5013232;28;20189;-92
2023/03/26 02:42:11;;;;;;;7.57;4.63;;;;;;;-141.97;67.52;47772.78;5013175;28;20167;-91
2023/03/26 02:44:39;;;;;;;10.17;4.70;;;;;;;-141.97;66.19;47811.25;5012832;28;20166;-90
2023/03/26 02:47:04;;;;;;;7.73;5.40;;;;;;;-141.97;66.18;47694.00;5020802;28;20234;-90
2023/03/26 02:49:30;;;;;;;6.67;4.70;;;;;;;-141.97;66.05;47526.75;5029297;28;20245;-89
2023/03/26 02:51:55;;;;;;;5.83;4.53;;;;;;;-141.97;66.77;47603.66;5012110;28;20213;-89
2023/03/26 02:54:22;;;;;;;7.40;4.47;;;;;;;-141.97;65.99;47640.16;5013203;28;20159;-91
2023/03/26 02:56:47;;;;;;;5.73;4.10;;;;;;;-141.97;65.31;47580.59;5012886;28;20608;-89
2023/03/26 02:59:13;;;;;;;6.47;3.90;;;;;;;-141.97;64.39;47586.34;5012470;28;20167;-90
2023/03/26 03:01:41;;;;;;;5.30;3.70;;;;;;;-141.97;63.78;47813.16;5011836;28;20581;-91
2023/03/26 03:04:11;;;;;;;4.90;3.00;;;;;;;-141.97;63.78;47572.91;5009559;28;20189;-91
2023/03/26 03:06:37;;;;;;;4.73;3.43;;;;;;;-141.97;63.35;47672.84;4992003;28;20283;-91
2023/03/26 03:09:04;;;;;;;6.50;2.97;;;;;;;-141.97;63.42;47569.06;5008250;28;20223;-91
2023/03/26 03:11:30;;;;;;;5.47;2.93;;;;;;;-141.97;63.06;47515.22;4993489;28;20167;-92
2023/03/26 03:13:55;;;;;;;5.10;3.00;;;;;;;-141.97;63.17;47549.84;5010567;28;20164;-90
2023/03/26 03:16:21;;;;;;;2.87;2.40;;;;;;;-141.97;63.26;47638.25;5011811;28;20171;-92
2023/03/26 03:18:53;;;;;;;3.07;2.50;;;;;;;-141.97;63.24;47517.16;5026967;28;20172;-90
2023/03/26 03:21:22;;;;;;;3.67;2.53;;;;;;;-141.97;63.17;47605.56;5034440;28;20194;-92
2023/03/26 03:23:47;;;;;;;3.57;2.57;;;;;;;-141.97;62.65;47590.19;5100932;23;20245;-92
2023/03/26 03:26:16;;;;;;;2.67;2.00;;;;;;;-141.97;62.42;47572.91;5002255;28;20175;-91
2023/03/26 03:28:41;;;;;;;3.80;2.07;;;;;;;-141.97;62.00;47584.44;4998228;28;20230;-92
2023/03/26 03:31:10;;;;;;;2.50;2.10;;;;;;;-141.97;62.18;47599.81;5011618;28;20588;-91
2023/03/26 03:33:35;;;;;;;3.37;1.83;;;;;;;-141.97;62.20;47742.03;4995387;28;20180;-91
2023/03/26 03:36:05;;;;;;;3.60;2.30;;;;;;;-141.97;62.20;47603.66;4995445;28;20544;-92
2023/03/26 03:38:31;;;;;;;2.27;1.90;;;;;;;-141.97;62.52;47561.38;4995502;28;20271;-90
2023/03/26 03:40:56;;;;;;;4.17;1.80;;;;;;;-141.97;61.98;47569.06;4996026;28;20270;-90
2023/03/26 03:43:22;;;;;;;2.30;1.90;;;;;;;-141.97;61.66;47561.38;4995890;28;20651;-90
2023/03/26 03:45:47;;;;;;;4.13;2.07;;;;;;;-141.97;61.21;47501.78;4994772;28;20660;-90
2023/03/26 03:48:12;;;;;;;2.57;1.90;;;;;;;-141.97;61.08;47730.50;4995422;28;20183;-91
2023/03/26 03:50:38;;;;;;;2.90;2.20;;;;;;;-141.97;61.45;47588.28;4994440;28;20211;-90
2023/03/26 03:53:04;;;;;;;2.30;1.83;;;;;;;-141.97;61.29;47672.84;4994464;28;20258;-91
2023/03/26 03:55:30;;;;;;;2.53;1.90;;;;;;;-141.97;61.59;47751.66;4996946;28;20721;-91
2023/03/26 03:57:57;;;;;;;2.67;2.00;;;;;;;-141.97;61.95;47603.66;4995534;28;20179;-90
2023/03/26 04:00:23;;;;;;;3.03;1.90;;;;;;;-141.97;62.29;47582.50;4995858;28;20233;-92
2023/03/26 04:02:48;;;;;;;1.90;1.60;;;;;;;-141.97;62.80;47521.00;4994590;28;20254;-92
2023/03/26 04:05:14;;;;;;;4.23;1.70;;;;;;;-141.97;62.99;47757.41;4994873;28;20629;-91
2023/03/26 04:07:39;;;;;;;1.93;1.60;;;;;;;-141.97;62.96;47517.16;4994850;28;20203;-90
2023/03/26 04:10:07;;;;;;;2.13;1.63;;;;;;;-141.97;63.12;47780.47;4995526;28;20624;-91
2023/03/26 04:12:33;;;;;;;1.83;1.50;;;;;;;-141.97;63.61;47584.44;5010444;28;20171;-90
2023/03/26 04:14:58;;;;;;;2.03;1.50;;;;;;;-141.97;63.56;47622.88;4994411;28;20608;-90
2023/03/26 04:17:24;;;;;;;1.73;1.33;;;;;;;-141.97;63.63;47561.38;4994450;28;20187;-91
2023/03/26 04:19:53;;;;;;;2.30;1.83;;;;;;;-141.97;63.84;47638.25;4995805;28;20183;-90
2023/03/26 04:22:20;;;;;;;1.87;1.60;;;;;;;-141.97;64.16;47534.44;5010423;28;20262;-91
2023/03/26 04:24:48;;;;;;;2.97;1.57;;;;;;;-141.97;64.16;47634.41;4993202;28;20187;-91
2023/03/26 04:27:17;;;;;;;2.00;1.60;;;;;;;-141.97;64.23;47757.41;4998618;28;20202;-89
2023/03/26 04:29:47;;;;;;;1.97;1.50;;;;;;;-141.97;64.07;47613.25;5002791;28;20214;-92
2023/03/26 04:32:28;;;;;;;4.13;2.60;;;;;;;-141.97;64.14;47742.03;4994800;28;20178;-90
2023/03/26 04:34:59;;;;;;;2.37;1.80;;;;;;;-141.97;64.23;47676.69;4995597;28;20194;-91
2023/03/26 04:37:26;;;;;;;2.33;1.80;;;;;;;-141.97;64.49;47680.53;4992822;28;20167;-91
2023/03/26 04:39:53;;;;;;;2.00;1.80;;;;;;;-141.97;64.69;47684.38;4984426;28;20179;-91
2023/03/26 04:42:19;;;;;;;2.17;1.43;;;;;;;-141.97;64.95;47567.13;5003144;28;20163;-91
2023/03/26 04:44:49;;;;;;;3.00;2.07;;;;;;;-141.97;65.15;47599.81;4986000;28;20178;-90
2023/03/26 04:47:16;;;;;;;1.83;1.53;;;;;;;-141.97;65.27;47607.50;4982136;28;20167;-92
2023/03/26 04:49:41;;;;;;;3.97;2.27;;;;;;;-141.97;64.51;47634.41;4984380;28;20195;-92
2023/03/26 04:52:10;;;;;;;2.20;1.70;;;;;;;-141.97;63.90;47747.81;4983324;28;20598;-90
2023/03/26 04:54:35;;;;;;;2.73;1.97;;;;;;;-141.97;64.11;47570.97;4985240;28;20168;-91
2023/03/26 04:57:11;;;;;;;2.67;2.00;;;;;;;-141.97;64.06;47615.19;4984030;28;20487;-92
2023/03/26 04:59:36;;;;;;;3.23;1.93;;;;;;;-141.97;63.90;47567.13;4985582;28;20563;-91
2023/03/26 05:02:03;;;;;;;3.13;1.80;;;;;;;-141.97;63.76;47622.88;4995380;28;20168;-90
2023/03/26 05:04:29;;;;;;;3.40;2.10;;;;;;;-141.97;63.77;47753.56;4993354;28;20175;-91
2023/03/26 05:06:57;;;;;;;4.20;1.80;;;;;;;-141.97;63.82;47638.25;4993977;28;20194;-91
2023/03/26 05:09:23;;;;;;;2.60;1.90;;;;;;;-141.97;64.05;47549.84;4995071;28;20199;-91
2023/03/26 05:11:49;;;;;;;2.80;1.73;;;;;;;-141.97;63.89;47657.47;4994013;28;20178;-91
2023/03/26 05:14:15;;;;;;;4.07;2.40;;;;;;;-141.97;64.04;47807.41;4994429;28;20684;-90
2023/03/26 05:16:41;;;;;;;3.93;2.07;;;;;;;-141.97;64.35;47655.53;4994316;28;20254;-90
2023/03/26 05:19:07;;;;;;;2.53;2.30;;;;;;;-141.97;64.41;47463.34;4995145;28;20187;-90
2023/03/26 05:21:33;;;;;;;3.90;2.47;;;;;;;-141.97;64.78;47642.09;4993275;28;20175;-91
2023/03/26 05:23:59;;;;;;;3.90;2.60;;;;;;;-141.97;64.94;47711.28;4994398;28;20234;-91
2023/03/26 05:26:25;;;;;;;2.10;1.80;;;;;;;-141.97;64.98;47601.72;4986671;28;20575;-91
2023/03/26 05:28:50;;;;;;;2.73;2.40;;;;;;;-141.97;65.02;47765.09;4993648;28;20226;-90
2023/03/26 05:31:20;;;;;;;3.33;2.17;;;;;;;-141.97;65.44;47522.91;4990141;28;20167;-91
2023/03/26 05:33:47;;;;;;;3.20;2.50;;;;;;;-141.97;65.60;47619.03;4981791;28;20179;-93
2023/03/26 05:36:14;;;;;;;2.10;1.70;;;;;;;-141.97;65.52;47757.41;4980313;28;20567;-90
2023/03/26 05:38:40;;;;;;;3.00;2.00;;;;;;;-141.97;65.63;47501.78;4998010;28;20179;-90
2023/03/26 05:41:08;;;;;;;2.20;1.80;;;;;;;-141.97;65.51;47720.91;4981480;28;20199;-90
2023/03/26 05:43:34;;;;;;;2.20;1.80;;;;;;;-141.97;65.58;47584.44;4984098;28;20171;-90
2023/03/26 05:46:02;;;;;;;2.43;1.73;;;;;;;-141.97;65.09;47793.94;4989978;28;20205;-87
2023/03/26 05:48:28;;;;;;;3.43;2.20;;;;;;;-141.97;65.41;47688.22;4990663;28;20194;-91
2023/03/26 05:50:55;;;;;;;3.73;2.30;;;;;;;-141.97;64.99;47676.69;4987712;28;20538;-92
2023/03/26 05:53:22;;;;;;;3.90;2.53;;;;;;;-141.97;65.29;47713.22;4983233;28;20227;-89
2023/03/26 05:55:56;;;;;;;3.20;2.10;;;;;;;-141.97;64.97;47728.59;4995071;28;20238;-91
2023/03/26 05:58:26;;;;;;;3.67;2.67;;;;;;;-141.97;65.04;47467.19;4992245;28;20217;-91
2023/03/26 06:01:04;;;;;;;1.80;1.60;;;;;;;-141.97;64.20;47580.59;4981441;28;20192;-92
2023/03/26 06:03:38;;;;;;;3.37;3.03;;;;;;;-141.97;63.90;47595.97;4978120;28;20225;-90
2023/03/26 06:06:08;;;;;;;4.17;3.10;;;;;;;-141.97;63.65;47659.38;4983669;28;20533;-91
2023/03/26 06:08:34;;;;;;;5.10;3.63;;;;;;;-141.97;63.45;47580.59;4992333;28;20255;-92
2023/03/26 06:11:02;;;;;;;13.30;7.20;;;;;;;-141.97;62.71;47563.28;4992598;28;20238;-92
2023/03/26 06:13:27;;;;;;;8.93;5.27;;;;;;;-141.97;62.57;47576.75;4992451;28;20263;-91
2023/03/26 06:15:53;;;;;;;3.10;2.50;;;;;;;-141.97;61.74;47619.03;4992515;28;20235;-91
2023/03/26 06:18:19;;;;;;;3.93;2.90;;;;;;;-141.97;61.90;47584.44;4997182;28;20302;-93
2023/03/26 06:20:45;;;;;;;3.17;1.93;;;;;;;-141.97;62.00;47767.03;4992230;28;20189;-86
2023/03/26 06:23:11;;;;;;;2.80;2.40;;;;;;;-141.97;61.75;47515.22;4994022;28;20226;-87
2023/03/26 06:25:37;;;;;;;2.20;2.00;;;;;;;-141.97;59.70;47630.56;5000600;28;20270;-85
2023/03/26 06:28:03;;;;;;;3.80;2.23;;;;;;;-141.97;59.65;47707.44;5001915;28;20176;-90
2023/03/26 06:30:28;;;;;;;6.00;3.63;;;;;;;-141.97;59.24;47496.00;4982852;28;20663;-90
2023/03/26 06:32:54;;;;;;;3.83;2.60;;;;;;;-141.97;59.95;47732.44;4985586;28;20172;-90
2023/03/26 06:35:23;;;;;;;4.93;2.80;;;;;;;-141.97;60.12;47697.84;4989483;28;20204;-94
2023/03/26 06:37:48;;;;;;;2.27;1.97;;;;;;;-141.97;59.78;47459.50;4992393;28;20195;-92
2023/03/26 06:40:14;;;;;;;5.47;4.10;;;;;;;-141.97;59.00;47465.25;4995265;28;20163;-92
2023/03/26 06:42:39;;;;;;;5.67;3.83;;;;;;;-141.97;58.24;47446.03;4986381;28;20222;-91
2023/03/26 06:45:06;;;;;;;3.67;3.13;;;;;;;-141.97;57.91;47497.94;4994757;28;20175;-91
2023/03/26 06:47:31;;;;;;;3.40;2.60;;;;;;;-141.97;56.77;47703.59;5008246;28;20184;-92
2023/03/26 06:49:56;;;;;;;3.43;1.93;;;;;;;-141.97;56.77;47647.84;4997041;28;20246;-91
2023/03/26 06:52:22;;;;;;;2.27;2.00;;;;;;;-141.97;56.77;47728.59;5006374;28;20266;-92
2023/03/26 06:54:47;;;;;;;2.87;2.30;;;;;;;-141.97;56.28;47765.09;4996679;28;20272;-91
2023/03/26 06:57:13;;;;;;;5.07;3.40;;;;;;;-141.97;56.33;47444.13;4997602;28;20258;-92
2023/03/26 06:59:38;;;;;;;3.20;2.40;;;;;;;-141.97;56.80;47449.88;4995473;28;20183;-93
2023/03/26 07:02:04;;;;;;;3.87;2.30;;;;;;;-141.97;55.22;47757.41;4995825;28;20160;-92
2023/03/26 07:04:29;;;;;;;5.23;2.87;;;;;;;-141.97;55.45;47599.81;4989479;28;20175;-92
2023/03/26 07:06:55;;;;;;;4.00;2.10;;;;;;;-141.97;55.09;47636.31;4994515;28;20181;-92
2023/03/26 07:09:20;;;;;;;3.60;2.53;;;;;;;-141.97;54.65;47396.06;4988971;28;20691;-92
2023/03/26 07:11:45;;;;;;;2.83;2.50;;;;;;;-141.97;54.17;47642.09;4988946;28;20192;-91
2023/03/26 07:14:11;;;;;;;2.73;2.03;;;;;;;-141.97;54.32;47482.56;4979278;28;20227;-91
2023/03/26 07:16:36;;;;;;;3.03;2.20;;;;;;;-141.97;52.70;47692.06;5000436;28;20662;-92
2023/03/26 07:19:02;;;;;;;3.37;2.30;;;;;;;-141.97;53.01;47580.59;4983758;28;20191;-92
2023/03/26 07:21:28;;;;;;;3.63;2.73;;;;;;;-141.97;52.66;47665.16;4995808;28;20183;-92
2023/03/26 07:23:53;;;;;;;5.80;3.87;;;;;;;-141.97;52.32;47488.31;4999127;28;20234;-90
2023/03/26 07:26:42;;;;;;;3.23;1.80;;;;;;;-141.97;51.34;47413.38;4999277;28;20172;-92
2023/03/26 07:29:32;;;;;;;2.43;2.03;;;;;;;-141.97;51.74;47553.69;5006011;28;20184;-93
2023/03/26 07:32:12;;;;;;;3.70;2.80;;;;;;;-141.97;51.85;47659.38;5016492;28;20202;-91
2023/03/26 07:35:02;;;;;;;4.47;3.20;;;;;;;-141.97;50.73;47657.47;4997393;28;20266;-91
2023/03/26 07:37:39;;;;;;;3.67;2.20;;;;;;;-141.97;50.62;47563.28;4994757;28;20227;-92
2023/03/26 07:40:46;;;;;;;2.73;2.20;;;;;;;-141.97;50.53;47461.41;4988719;28;20231;-92
2023/03/26 07:43:17;;;;;;;3.87;2.60;;;;;;;-141.97;50.01;47622.88;4961244;29;20220;-93
2023/03/26 07:45:47;;;;;;;2.87;1.87;;;;;;;-141.97;49.65;47615.19;4950219;29;20683;-91
2023/03/26 07:48:24;;;;;;;4.43;2.27;;;;;;;-141.97;48.97;47599.81;4941410;29;20220;-93
2023/03/26 07:50:52;;;;;;;6.13;3.83;;;;;;;-141.97;47.92;47546.00;4941375;29;20208;-94
2023/03/26 07:53:17;;;;;;;9.13;5.27;;;;;;;-141.97;47.43;47738.19;4944935;29;20201;-93
2023/03/26 07:56:13;;;;;;;4.30;2.60;;;;;;;-141.97;44.87;47651.69;4943280;29;20169;-92
2023/03/26 07:58:52;;;;;;;5.13;3.00;;;;;;;-141.97;44.36;47649.78;4943023;29;20169;-93
2023/03/26 08:01:42;;;;;;;2.23;1.77;;;;;;;-141.97;45.32;47619.03;4959521;29;20192;-93
2023/03/26 08:04:35;;;;;;;4.60;1.83;;;;;;;-141.97;45.03;47613.25;4942518;29;20743;-92
2023/03/26 08:07:10;;;;;;;2.00;1.63;;;;;;;-141.97;45.49;47622.88;4945353;29;20562;-94
2023/03/26 08:10:04;;;;;;;3.70;2.00;;;;;;;-141.97;45.19;47667.06;4946190;29;20192;-94
2023/03/26 08:12:51;;;;;;;7.47;4.00;;;;;;;-141.97;44.95;47657.47;4962630;29;20192;-94
2023/03/26 08:15:31;;;;;;;4.47;2.57;;;;;;;-141.97;45.42;47605.56;4944556;29;20200;-94
2023/03/26 08:18:02;;;;;;;6.67;3.63;;;;;;;-141.97;44.61;47770.88;4945602;29;20169;-96
2023/03/26 08:20:40;;;;;;;3.90;2.60;;;;;;;-141.97;45.09;47697.84;4987491;28;20253;-93
2023/03/26 08:23:51;;;;;;;4.30;2.77;;;;;;;-141.97;45.17;47644.00;5002862;28;20226;-94
2023/03/26 08:26:30;;;;;;;6.07;3.43;;;;;;;-141.97;45.48;47547.91;4968248;28;20704;-92
2023/03/26 08:29:14;;;;;;;5.23;3.00;;;;;;;-141.97;45.54;47451.81;4964012;28;20179;-93
2023/03/26 08:31:42;;;;;;;4.23;3.03;;;;;;;-141.97;44.08;47622.88;4963950;28;20196;-95
2023/03/26 08:34:11;;;;;;;4.60;1.70;;;;;;;-141.97;43.08;47705.53;4963529;28;20168;-94
2023/03/26 08:36:38;;;;;;;9.07;4.27;;;;;;;-141.97;43.52;47703.59;4962367;28;20191;-93
2023/03/26 08:39:04;;;;;;;4.37;2.90;;;;;;;-141.97;43.62;47599.81;4964339;28;20160;-93
2023/03/26 08:41:51;;;;;;;5.93;3.77;;;;;;;-141.97;43.31;47592.13;4963603;28;20234;-93
2023/03/26 08:44:40;;;;;;;7.53;4.10;;;;;;;-141.97;42.42;47580.59;4964224;28;20184;-93
2023/03/26 08:47:34;;;;;;;3.77;2.87;;;;;;;-141.97;42.24;47620.94;4965117;28;20160;-93
2023/03/26 08:50:11;;;;;;;2.87;2.03;;;;;;;-141.97;41.99;47619.03;4966361;28;20258;-93
2023/03/26 08:53:10;;;;;;;6.00;3.57;;;;;;;-141.97;41.76;47449.88;4966431;28;20270;-94
2023/03/26 08:55:51;;;;;;;4.27;2.33;;;;;;;-141.97;41.42;47651.69;4966556;28;20176;-92
2023/03/26 08:58:52;;;;;;;6.90;3.70;;;;;;;-141.97;40.59;47542.16;4967719;28;20187;-92
2023/03/26 09:01:59;;;;;;;5.53;2.83;;;;;;;-141.97;41.23;47611.34;4966121;28;20179;-93
2023/03/26 09:04:55;;;;;;;8.03;3.43;;;;;;;-141.97;40.30;47620.94;5014008;28;20177;-93
2023/03/26 09:07:33;;;;;;;5.00;2.40;;;;;;;-141.97;39.46;47603.66;5111589;23;20234;-92
2023/03/26 09:10:25;;;;;;;6.67;3.43;;;;;;;-141.97;39.01;47492.16;5008728;28;20211;-92
2023/03/26 09:12:51;;;;;;;9.10;4.57;;;;;;;-141.97;38.44;47784.34;5004516;28;20182;-93
2023/03/26 09:15:38;;;;;;;7.10;3.60;;;;;;;-141.97;38.00;47542.16;5005217;28;20198;-94
2023/03/26 09:18:48;;;;;;;10.83;4.70;;;;;;;-141.97;37.99;47599.81;5016281;28;20181;-94
2023/03/26 09:21:45;;;;;;;3.00;1.73;;;;;;;-141.97;37.62;47611.34;5177097;23;20230;-94
2023/03/26 09:25:05;;;;;;;3.03;2.53;;;;;;;-141.97;37.78;47622.88;5003549;28;20187;-94
2023/03/26 09:27:58;;;;;;;3.43;2.50;;;;;;;-141.97;37.27;47609.41;4947939;29;20196;-94
2023/03/26 09:30:30;;;;;;;4.37;1.63;;;;;;;-141.97;37.15;47622.88;4950266;29;20220;-93
2023/03/26 09:33:27;;;;;;;2.23;1.60;;;;;;;-141.97;37.12;47480.63;4951209;29;20196;-91
2023/03/26 09:36:17;;;;;;;2.20;1.63;;;;;;;-141.97;36.84;47632.47;4966918;28;20752;-93
2023/03/26 09:38:44;;;;;;;2.63;2.00;;;;;;;-141.97;36.32;47555.59;4939267;29;20715;-92
2023/03/26 09:41:21;;;;;;;3.20;1.70;;;;;;;-141.97;35.89;47615.19;4939420;28;20179;-93
2023/03/26 09:43:53;;;;;;;2.87;1.60;;;;;;;-141.97;35.65;47582.50;4955417;28;20544;-91
2023/03/26 09:46:52;;;;;;;3.37;2.20;;;;;;;-141.97;35.50;47553.69;4946960;29;20173;-92
2023/03/26 09:49:21;;;;;;;2.40;1.80;;;;;;;-141.97;34.91;47584.44;4945406;29;20220;-91
2023/03/26 09:52:10;;;;;;;2.50;1.90;;;;;;;-141.97;35.26;47601.72;4946359;29;20363;-92
2023/03/26 09:54:57;;;;;;;2.57;2.10;;;;;;;-141.97;34.53;47592.13;4885473;29;20289;-92
2023/03/26 09:57:25;;;;;;;3.57;2.63;;;;;;;-141.97;34.12;47599.81;4883513;29;20234;-92
2023/03/26 10:00:18;;;;;;;2.87;1.80;;;;;;;-141.97;34.27;47715.13;4882086;29;20795;-93
2023/03/26 10:03:04;;;;;;;3.40;2.00;;;;;;;-141.97;34.48;47576.75;4924196;29;20236;-90
2023/03/26 10:05:56;;;;;;;2.33;1.73;;;;;;;-141.97;33.85;47611.34;4924405;29;20690;-92
2023/03/26 10:08:23;;;;;;;2.67;1.70;;;;;;;-141.97;33.76;47630.56;4938390;28;20770;-92
2023/03/26 10:10:58;;;;;;;3.07;2.07;;;;;;;-141.97;33.46;47611.34;4922458;29;20256;-92
2023/03/26 10:13:53;;;;;;;2.90;1.90;;;;;;;-141.97;32.77;47586.34;4937390;29;20223;-93
2023/03/26 10:16:37;;;;;;;4.00;1.93;;;;;;;-141.97;32.68;47592.13;4934849;29;20201;-92
2023/03/26 10:19:08;;;;;;;6.40;4.17;;;;;;;-141.97;32.57;47584.44;4918709;29;20280;-92
2023/03/26 10:21:42;;;;;;;5.50;3.10;;;;;;;-141.97;31.93;47632.47;4934691;29;20225;-91
2023/03/26 10:24:28;;;;;;;6.37;3.43;;;;;;;-141.97;31.21;47667.06;4922934;29;20170;-92
2023/03/26 10:27:03;;;;;;;3.43;2.33;;;;;;;-141.97;31.12;47592.13;4922858;29;20181;-92
2023/03/26 10:29:40;;;;;;;2.80;1.73;;;;;;;-141.97;30.26;47655.53;4924229;29;20193;-92
2023/03/26 10:32:17;;;;;;;4.63;2.20;;;;;;;-141.97;30.83;47607.50;4971986;28;20585;-94
2023/03/26 10:34:55;;;;;;;3.67;1.80;;;;;;;-141.97;30.16;47597.88;5005843;28;20175;-92
2023/03/26 10:37:36;;;;;;;4.17;1.83;;;;;;;-141.97;30.46;47570.97;4997106;28;20716;-92
2023/03/26 10:40:27;;;;;;;1.93;1.30;;;;;;;-141.97;31.04;47588.28;5000357;28;20198;-94
2023/03/26 10:43:10;;;;;;;3.00;2.33;;;;;;;-141.97;30.60;47588.28;5003675;28;20222;-92
2023/03/26 10:45:54;;;;;;;3.10;1.40;;;;;;;-141.97;30.33;47578.66;4998087;28;20168;-92
2023/03/26 10:48:41;;;;;;;3.50;2.20;;;;;;;-141.97;30.66;47592.13;5003991;28;20175;-92
2023/03/26 10:51:29;;;;;;;1.83;1.60;;;;;;;-141.97;30.12;47582.50;5000393;28;20222;-92
2023/03/26 10:54:06;;;;;;;2.20;1.60;;;;;;;-141.97;30.05;47597.88;4996665;28;20172;-92
2023/03/26 10:56:37;;;;;;;3.87;2.10;;;;;;;-141.97;30.50;47457.56;4997051;28;20175;-93
2023/03/26 10:59:11;;;;;;;4.77;2.70;;;;;;;-141.97;30.51;47605.56;5001767;28;20573;-91
2023/03/26 11:01:54;;;;;;;2.60;1.70;;;;;;;-141.97;29.88;47695.91;5013424;28;20161;-93
2023/03/26 11:04:42;;;;;;;3.77;2.40;;;;;;;-141.97;29.79;47426.81;5000127;28;20179;-93
2023/03/26 11:07:56;;;;;;;;;;;;;;;;;;;;;
2023/03/26 11:10:33;;;;;;;6.37;2.40;;;;;;;-141.97;29.96;47590.19;5009412;28;20726;-93
2023/03/26 11:13:07;;;;;;;3.87;2.20;;;;;;;-141.97;29.02;47563.28;4995577;28;20171;-88
2023/03/26 11:15:47;;;;;;;2.90;2.40;;;;;;;-141.97;29.35;47471.03;4993325;28;20172;-90
2023/03/26 11:18:23;;;;;;;2.60;1.85;;;;;;;-141.97;29.10;47511.38;4977104;28;20840;-90
2023/03/26 11:21:01;;;;;;;2.33;1.73;;;;;;;-141.97;29.26;47734.34;4996843;28;20385;-92
2023/03/26 11:23:34;;;;;;;5.27;3.23;;;;;;;-141.97;28.75;47588.28;4998207;28;20257;-91
2023/03/26 11:26:16;;;;;;;5.63;3.13;;;;;;;-141.97;28.87;47572.91;5012294;28;20191;-92
2023/03/26 11:28:47;;;;;;;4.33;2.87;;;;;;;-141.97;29.27;47553.69;4989835;28;20175;-92
2023/03/26 11:31:45;;;;;;;4.63;2.83;;;;;;;-141.97;29.18;47405.69;5006263;28;20664;-92
2023/03/26 11:34:25;;;;;;;4.23;2.40;;;;;;;-141.97;28.64;47478.72;4909045;29;20184;-91
2023/03/26 11:36:55;;;;;;;4.33;2.70;;;;;;;-141.97;29.18;47292.28;4926722;29;20714;-91
2023/03/26 11:39:25;;;;;;;2.17;1.70;;;;;;;-141.97;28.72;47488.31;4901496;29;20186;-92
2023/03/26 11:42:05;;;;;;;1.77;1.50;;;;;;;-141.97;28.82;47342.25;4918239;29;20225;-90
2023/03/26 11:44:38;;;;;;;2.10;1.60;;;;;;;-141.97;28.46;47788.19;4903039;29;20177;-93
2023/03/26 11:47:09;;;;;;;4.00;1.67;;;;;;;-141.97;28.63;47373.00;4901222;29;20180;-92
2023/03/26 11:49:35;;;;;;;2.93;1.60;;;;;;;-141.97;27.59;47570.97;4920104;29;20212;-90
2023/03/26 11:52:02;;;;;;;2.87;2.10;;;;;;;-141.97;27.37;47432.59;4901954;29;20193;-91
2023/03/26 11:54:28;;;;;;;1.73;1.60;;;;;;;-141.97;27.16;47388.38;4916623;29;20658;-93
2023/03/26 11:57:00;;;;;;;1.80;1.50;;;;;;;-141.97;27.47;47709.38;4915581;29;20178;-92
2023/03/26 11:59:53;;;;;;;2.00;1.53;;;;;;;-141.97;26.79;47388.38;4904384;29;20194;-90
2023/03/26 12:02:32;;;;;;;2.53;2.10;;;;;;;-141.97;26.77;47315.34;4907175;29;20190;-93
2023/03/26 12:05:18;;;;;;;5.95;2.17;;;;;;;-141.97;26.54;47515.22;5190279;23;20247;-93
2023/03/26 12:07:52;;;;;;;2.30;1.90;;;;;;;-141.97;26.60;47396.06;5032405;28;20178;-93
2023/03/26 12:10:25;;;;;;;3.55;2.40;;;;;;;-141.97;25.59;47496.00;5020133;28;20579;-91
2023/03/26 12:12:54;;;;;;;3.58;2.35;;;;;;;-141.97;25.62;47317.28;5001488;28;20189;-91
2023/03/26 12:15:21;;;;;;;3.47;2.30;;;;;;;-141.97;25.69;47484.47;5014264;28;20262;-91
2023/03/26 12:20:24;;;;;;;2.58;1.60;;;;;;;-141.97;25.02;47507.53;5672745;23;20235;-90
2023/03/26 12:25:31;;;;;;;2.20;1.80;;;;;;;-141.97;24.77;47353.78;5304014;23;20246;-92
2023/03/26 12:28:01;;;;;;;3.03;2.00;;;;;;;-141.97;24.82;47315.34;5025488;28;20197;-93
2023/03/26 12:30:36;;;;;;;3.30;1.58;;;;;;;-141.97;24.95;47538.28;5024020;28;20261;-91
2023/03/26 12:38:32;;;;;;;2.20;1.70;;;;;;;-141.97;25.16;47697.84;5705120;23;20248;-92
2023/03/26 12:41:07;;;;;;;1.90;1.52;;;;;;;-141.97;24.96;47542.16;5020095;28;20205;-92
2023/03/26 12:43:39;;;;;;;3.30;2.00;;;;;;;-141.97;24.99;47511.38;5018642;28;20240;-92
2023/03/26 12:46:22;;;;;;;2.78;1.90;;;;;;;-141.97;24.89;47595.97;5024510;28;20187;-92
2023/03/26 12:48:49;;;;;;;2.88;2.17;;;;;;;-141.97;24.94;47373.00;5018800;28;20174;-92
2023/03/26 12:51:32;;;;;;;9.20;1.80;;;;;;;-141.97;24.88;47538.28;5020313;28;20198;-91
2023/03/26 12:53:58;;;;;;;3.38;1.48;;;;;;;-141.97;24.80;47522.91;5019103;28;20198;-90
2023/03/26 12:56:35;;;;;;;3.13;1.70;;;;;;;-141.97;24.37;47467.19;5012953;28;20175;-92